createdAt,value
2018-09-18T00:35:13.714Z,96794.67
2018-09-18T00:39:08.136Z,96792.08
2018-09-18T00:42:56.322Z,96798.27
2018-09-18T00:46:22.831Z,96801.56
2018-09-18T00:50:02.340Z,96796.22
2018-09-18T00:53:37.519Z,96798.94
2018-09-18T00:57:14.359Z,96793.28
2018-09-18T01:01:02.196Z,96789.41
2018-09-18T01:04:55.031Z,96789.84
2018-09-18T01:08:43.856Z,96791.31
2018-09-18T01:12:24.034Z,96791.16
2018-09-18T01:15:49.080Z,96786.89
2018-09-18T01:19:14.776Z,96791.41
2018-09-18T01:22:40.250Z,96795.05
2018-09-18T01:26:05.541Z,96793.52
2018-09-18T01:29:31.118Z,96800.37
2018-09-18T01:32:56.541Z,96794.48
2018-09-18T01:36:22.043Z,96796.73
2018-09-18T01:39:47.815Z,96797.22
2018-09-18T01:43:14.798Z,96796.88
2018-09-18T01:46:40.446Z,96797.67
2018-09-18T01:50:06.538Z,96793.08
2018-09-18T01:53:31.887Z,96793.80
2018-09-18T01:56:57.244Z,96796.83
2018-09-18T02:00:22.778Z,96788.73
2018-09-18T02:03:48.235Z,96798.00
2018-09-18T02:07:14.505Z,96799.59
2018-09-18T02:10:40.708Z,96797.20
2018-09-18T02:14:05.735Z,96798.75
2018-09-18T02:17:31.444Z,96801.98
2018-09-18T02:20:57.018Z,96802.05
2018-09-18T02:24:22.142Z,96800.75
2018-09-18T02:27:47.408Z,96807.34
2018-09-18T02:31:12.820Z,96801.84
2018-09-18T02:34:38.503Z,96795.94
2018-09-18T02:38:03.947Z,96796.66
2018-09-18T02:41:29.261Z,96790.37
2018-09-18T02:44:54.936Z,96791.94
2018-09-18T02:48:21.761Z,96798.69
2018-09-18T02:51:47.346Z,96804.89
2018-09-18T02:55:12.766Z,96802.08
2018-09-18T02:58:38.498Z,96805.54
2018-09-18T03:02:03.404Z,96813.73
2018-09-18T03:05:28.084Z,96816.86
2018-09-18T03:08:53.846Z,96815.86
2018-09-18T03:12:18.212Z,96820.16
2018-09-18T03:15:42.617Z,96815.77
2018-09-18T03:19:06.968Z,96813.15
2018-09-18T03:22:31.308Z,96818.98
2018-09-18T03:25:55.593Z,96823.20
2018-09-18T03:29:20.583Z,96836.71
2018-09-18T03:32:48.173Z,96840.33
2018-09-18T03:36:14.737Z,96845.33
2018-09-18T03:39:40.335Z,96847.18
2018-09-18T03:43:04.775Z,96836.98
2018-09-18T03:46:28.935Z,96835.84
2018-09-18T03:49:54.210Z,96836.98
2018-09-18T03:53:19.014Z,96833.22
2018-09-18T03:56:44.229Z,96836.32
2018-09-18T04:00:09.283Z,96839.97
2018-09-18T04:19:19.939Z,96837.89
2018-09-18T04:23:45.998Z,96841.11
2018-09-18T05:04:00.667Z,96857.88
2018-09-18T05:29:50.249Z,96874.98
2018-09-18T05:33:36.741Z,96874.23
2018-09-18T05:37:09.807Z,96876.03
2018-09-18T05:40:52.113Z,96875.56
2018-09-18T05:44:21.607Z,96875.94
2018-09-18T05:48:04.879Z,96879.92
2018-09-18T05:51:34.872Z,96883.18
2018-09-18T05:58:57.763Z,96883.45
2018-09-18T06:02:22.250Z,96890.22
2018-09-18T06:06:18.646Z,96886.62
2018-09-18T06:09:44.296Z,96887.52
2018-09-18T06:13:09.802Z,96890.16
2018-09-18T06:16:38.284Z,96888.73
2018-09-18T06:20:04.206Z,96901.52
2018-09-18T06:23:40.811Z,96898.06
2018-09-18T06:28:37.128Z,96892.87
2018-09-18T06:32:01.413Z,96896.48
2018-09-18T06:35:27.072Z,96895.15
2018-09-18T06:38:51.380Z,96898.45
2018-09-18T06:42:19.528Z,96900.39
2018-09-18T06:45:43.939Z,96902.45
2018-09-18T06:49:08.806Z,96901.95
2018-09-18T06:52:33.212Z,96903.06
2018-09-18T06:55:58.723Z,96894.09
2018-09-18T06:59:23.258Z,96896.73
2018-09-18T07:02:47.813Z,96900.98
2018-09-18T07:06:12.386Z,96903.02
2018-09-18T07:09:36.942Z,96904.43
2018-09-18T07:13:03.018Z,96914.02
2018-09-18T07:16:29.406Z,96914.26
2018-09-18T07:19:59.476Z,96914.83
2018-09-18T07:23:23.976Z,96919.29
2018-09-18T07:26:49.122Z,96916.61
2018-09-18T07:30:13.296Z,96923.19
2018-09-18T07:33:37.815Z,96913.91
2018-09-18T07:37:02.200Z,96918.73
2018-09-18T07:40:29.960Z,96918.19
2018-09-18T07:43:58.136Z,96934.75
2018-09-18T07:47:25.544Z,96930.93
2018-09-18T07:50:52.457Z,96926.12
2018-09-18T07:54:23.861Z,96932.11
2018-09-18T07:58:30.695Z,96938.84
2018-09-18T08:06:00.266Z,96935.19
2018-09-18T08:29:00.633Z,96944.70
2018-09-18T08:32:55.237Z,96943.38
2018-09-18T08:41:55.735Z,96939.41
2018-09-18T08:45:34.963Z,96941.41
2018-09-18T08:49:05.867Z,96946.75
2018-09-18T08:52:36.140Z,96943.86
2018-09-18T08:56:06.283Z,96949.34
2018-09-18T08:59:32.577Z,96946.88
2018-09-18T09:03:14.731Z,96951.67
2018-09-18T09:06:53.006Z,96952.00
2018-09-18T09:10:37.407Z,96948.62
2018-09-18T09:14:28.257Z,96952.63
2018-09-18T09:18:20.846Z,96955.36
2018-09-18T09:22:08.427Z,96951.95
2018-09-18T09:25:43.414Z,96944.43
2018-09-18T09:29:09.234Z,96949.91
2018-09-18T09:32:56.656Z,96954.45
2018-09-18T09:40:35.949Z,96963.88
2018-09-18T09:44:37.798Z,96969.09
2018-09-18T09:48:23.490Z,96970.77
2018-09-18T09:52:16.330Z,96971.75
2018-09-18T09:56:43.413Z,96963.11
2018-09-18T10:00:18.450Z,96957.03
2018-09-18T10:03:50.735Z,96968.39
2018-09-18T10:07:59.016Z,96962.99
2018-09-18T10:12:06.654Z,96962.33
2018-09-18T15:12:29.445Z,96723.23
2018-09-18T18:30:15.018Z,96793.31
2018-09-18T18:33:49.282Z,96801.22
2018-09-18T18:37:16.765Z,96814.97
2018-09-18T18:41:30.160Z,96822.87
2018-09-18T18:45:06.159Z,96829.39
2018-09-18T18:48:30.745Z,96829.13
2018-09-18T18:51:55.142Z,96825.88
2018-09-18T18:55:19.703Z,96827.39
2018-09-18T18:58:44.808Z,96828.39
2018-09-18T19:02:09.283Z,96843.47
2018-09-18T19:05:49.334Z,96845.22
2018-09-18T19:23:48.484Z,96899.44
2018-09-18T19:27:15.027Z,96934.54
2018-09-18T19:30:45.467Z,96978.23
2018-09-18T19:34:38.423Z,97008.65
2018-09-18T19:38:05.083Z,96990.31
2018-09-18T19:41:30.895Z,96982.63
2018-09-18T19:44:55.283Z,96966.95
2018-09-18T19:48:28.365Z,96958.47
2018-09-18T19:51:53.283Z,96983.31
2018-09-18T19:55:43.240Z,96994.68
2018-09-18T19:59:07.784Z,96989.37
2018-09-18T20:02:32.294Z,96984.45
2018-09-18T20:05:56.677Z,96977.98
2018-09-18T20:09:20.946Z,96978.96
2018-09-18T20:13:15.572Z,96987.03
2018-09-18T20:16:41.880Z,96970.85
2018-09-18T20:20:09.494Z,96969.31
2018-09-18T20:27:33.885Z,96960.44
2018-09-18T20:30:59.399Z,96976.34
2018-09-18T20:34:23.736Z,96965.23
2018-09-18T20:37:47.954Z,96971.98
2018-09-18T20:41:12.230Z,96967.39
2018-09-18T20:44:36.479Z,96957.34
2018-09-18T20:48:00.983Z,96940.61
2018-09-18T20:51:28.879Z,96942.81
2018-09-18T21:02:45.362Z,96945.78
2018-09-18T21:06:12.075Z,96952.47
2018-09-18T21:09:45.656Z,96943.03
2018-09-18T21:13:21.724Z,96947.73
2018-09-18T21:16:47.248Z,96948.47
2018-09-18T21:20:19.359Z,96951.35
2018-09-18T21:23:50.919Z,96957.49
2018-09-18T21:27:15.202Z,96952.78
2018-09-18T21:30:40.607Z,96954.48
2018-09-18T21:34:07.960Z,96952.10
2018-09-18T21:37:33.683Z,96951.33
2018-09-18T21:41:00.067Z,96960.95
2018-09-18T21:44:25.612Z,96969.05
2018-09-18T21:47:53.177Z,96972.55
2018-09-18T21:51:17.662Z,96985.54
2018-09-18T21:55:14.521Z,96977.59
2018-09-18T21:58:43.286Z,96985.43
2018-09-18T22:02:30.528Z,96983.76
2018-09-18T22:05:55.376Z,96987.59
2018-09-18T22:23:51.312Z,97010.55
2018-09-18T22:27:15.342Z,97010.08
2018-09-18T22:30:39.437Z,97003.97
2018-09-18T22:34:03.532Z,97011.08
2018-09-18T22:37:27.682Z,97018.53
2018-09-18T22:40:51.728Z,97019.75
2018-09-18T22:44:15.852Z,97018.53
2018-09-18T22:47:39.823Z,97018.49
2018-09-18T22:51:03.851Z,97017.20
2018-09-18T22:54:28.918Z,97014.21
2018-09-18T22:57:52.898Z,97012.63
2018-09-18T23:01:16.941Z,97016.77
2018-09-18T23:04:40.932Z,97015.81
2018-09-18T23:08:04.911Z,97012.53
2018-09-18T23:11:28.917Z,97014.72
2018-09-18T23:14:52.932Z,97012.27
2018-09-18T23:18:17.003Z,97018.30
2018-09-18T23:21:41.039Z,97007.07
2018-09-18T23:25:05.032Z,97014.84
2018-09-18T23:28:29.057Z,97007.38
2018-09-18T23:31:54.074Z,97004.66
2018-09-18T23:35:18.071Z,97012.81
2018-09-18T23:38:42.191Z,97016.83
2018-09-18T23:42:06.273Z,97014.80
2018-09-18T23:45:30.266Z,97027.16
2018-09-18T23:48:54.294Z,97020.96
2018-09-18T23:52:18.435Z,97016.99
2018-09-18T23:55:42.467Z,97018.86
2018-09-18T23:59:06.717Z,97024.75
